createdAt,value
2023-05-06T00:01:22.280Z,0
2023-05-06T00:03:02.045Z,0
2023-05-06T00:04:41.806Z,0
2023-05-06T00:06:21.574Z,0
2023-05-06T00:08:01.353Z,0
2023-05-06T00:09:41.104Z,0
2023-05-06T00:11:20.878Z,0
2023-05-06T00:13:00.649Z,0
2023-05-06T00:14:40.409Z,0
2023-05-06T00:16:20.177Z,0
2023-05-06T00:17:59.944Z,0
2023-05-06T00:19:39.728Z,0
2023-05-06T00:21:19.496Z,0
2023-05-06T00:22:59.246Z,0
2023-05-06T00:24:39.017Z,0
2023-05-06T00:26:18.790Z,0
2023-05-06T00:27:58.534Z,0
2023-05-06T00:29:38.330Z,0
2023-05-06T00:31:18.100Z,0
2023-05-06T00:32:57.866Z,0
2023-05-06T00:34:37.627Z,0
2023-05-06T00:36:17.391Z,0
2023-05-06T00:37:57.161Z,0
2023-05-06T00:39:36.926Z,0
2023-05-06T00:41:16.701Z,0
2023-05-06T00:42:56.453Z,0
2023-05-06T00:44:36.247Z,0
2023-05-06T00:46:16.025Z,0
2023-05-06T00:47:55.767Z,0
2023-05-06T00:49:35.541Z,0
2023-05-06T00:51:15.310Z,0
2023-05-06T00:52:55.067Z,0
2023-05-06T00:54:34.843Z,0
2023-05-06T00:56:14.596Z,0
2023-05-06T00:57:54.372Z,0
2023-05-06T00:59:34.146Z,0
2023-05-06T01:01:13.910Z,0
2023-05-06T01:02:53.674Z,0
2023-05-06T01:04:33.436Z,0
2023-05-06T01:06:13.202Z,0
2023-05-06T01:07:52.968Z,0
2023-05-06T01:09:32.734Z,0
2023-05-06T01:11:12.522Z,0
2023-05-06T01:12:52.288Z,0
2023-05-06T01:14:32.053Z,0
2023-05-06T01:16:11.814Z,0
2023-05-06T01:17:51.574Z,0
2023-05-06T01:19:31.347Z,0
2023-05-06T01:21:11.113Z,0
2023-05-06T01:22:50.895Z,0
2023-05-06T01:24:30.648Z,0
2023-05-06T01:26:10.421Z,0
2023-05-06T01:27:50.195Z,0
2023-05-06T01:29:29.949Z,0
2023-05-06T01:31:09.738Z,0
2023-05-06T01:32:49.621Z,0
2023-05-06T01:34:29.393Z,0
2023-05-06T01:36:09.166Z,0
2023-05-06T01:37:48.924Z,0
2023-05-06T01:39:28.686Z,0
2023-05-06T01:41:08.484Z,0
2023-05-06T01:42:48.231Z,0
2023-05-06T01:44:28.000Z,0
2023-05-06T01:46:07.775Z,0
2023-05-06T01:47:47.538Z,0
2023-05-06T01:49:27.296Z,0
2023-05-06T01:51:07.106Z,0
2023-05-06T01:52:46.834Z,0
2023-05-06T01:54:26.597Z,0
2023-05-06T01:56:06.363Z,0
2023-05-06T01:57:46.125Z,0
2023-05-06T01:59:25.899Z,0
2023-05-06T02:01:05.675Z,0
2023-05-06T02:02:45.432Z,0
2023-05-06T02:04:25.195Z,0
2023-05-06T02:06:04.976Z,0
2023-05-06T02:07:44.750Z,0
2023-05-06T02:09:24.503Z,0
2023-05-06T02:11:04.284Z,0
2023-05-06T02:12:44.047Z,0
2023-05-06T02:14:23.802Z,0
2023-05-06T02:16:03.585Z,0
2023-05-06T02:17:43.345Z,0
2023-05-06T02:19:23.103Z,0
2023-05-06T02:21:02.895Z,0
2023-05-06T02:22:42.653Z,0
2023-05-06T02:24:22.425Z,0
2023-05-06T02:26:02.189Z,0
2023-05-06T02:27:41.958Z,0
2023-05-06T02:29:21.714Z,0
2023-05-06T02:31:01.469Z,0
2023-05-06T02:32:41.250Z,0
2023-05-06T02:34:21.030Z,0
2023-05-06T02:36:00.787Z,0
2023-05-06T02:37:40.548Z,0
2023-05-06T02:39:20.334Z,0
2023-05-06T02:41:00.092Z,0
2023-05-06T02:42:39.868Z,0
2023-05-06T02:44:19.604Z,0
2023-05-06T02:45:59.404Z,0
2023-05-06T02:47:39.245Z,0
2023-05-06T02:49:18.913Z,0
2023-05-06T02:50:58.699Z,0
2023-05-06T02:52:38.466Z,0
2023-05-06T02:54:18.225Z,0
2023-05-06T02:55:57.990Z,0
2023-05-06T02:57:37.774Z,0
2023-05-06T02:59:17.529Z,0
2023-05-06T03:00:57.292Z,0
2023-05-06T03:02:37.069Z,0
2023-05-06T03:04:16.825Z,0
2023-05-06T03:05:56.596Z,0
2023-05-06T03:07:36.364Z,0
2023-05-06T03:09:16.116Z,0
2023-05-06T03:10:55.894Z,0
2023-05-06T03:12:35.665Z,0
2023-05-06T03:14:15.435Z,0
2023-05-06T03:15:55.198Z,0
2023-05-06T03:17:34.962Z,0
2023-05-06T03:19:14.735Z,0
2023-05-06T03:20:54.500Z,0
2023-05-06T03:22:34.288Z,0
2023-05-06T03:24:14.034Z,0
2023-05-06T03:25:53.797Z,0
2023-05-06T03:27:33.579Z,0
2023-05-06T03:29:13.329Z,0
2023-05-06T03:30:53.111Z,0
2023-05-06T03:32:32.877Z,0
2023-05-06T03:34:12.639Z,0
2023-05-06T03:35:52.414Z,0
2023-05-06T03:37:32.177Z,0
2023-05-06T03:39:11.953Z,0
2023-05-06T03:40:51.708Z,0
2023-05-06T03:42:31.477Z,0
2023-05-06T03:44:11.241Z,2.05
2023-05-06T03:45:51.032Z,0
2023-05-06T03:47:30.772Z,0
2023-05-06T03:49:10.544Z,0
2023-05-06T03:50:50.311Z,0
2023-05-06T03:52:30.080Z,0
2023-05-06T03:54:09.846Z,0
2023-05-06T03:55:49.622Z,0
2023-05-06T03:57:29.380Z,0.25
2023-05-06T03:59:09.163Z,0.25
2023-05-06T04:00:48.910Z,0
2023-05-06T04:02:28.683Z,0
2023-05-06T04:04:08.476Z,0.25
2023-05-06T04:05:48.214Z,0.51
2023-05-06T04:07:27.993Z,0.25
2023-05-06T04:09:07.751Z,0.51
2023-05-06T04:10:47.530Z,1.28
2023-05-06T04:12:27.284Z,1.54
2023-05-06T04:14:07.057Z,1.28
2023-05-06T04:15:46.828Z,1.54
2023-05-06T04:17:26.596Z,3.09
2023-05-06T04:19:06.364Z,3.09
2023-05-06T04:20:46.135Z,2.32
2023-05-06T04:22:25.901Z,2.32
2023-05-06T04:24:05.676Z,2.83
2023-05-06T04:25:45.451Z,2.32
2023-05-06T04:27:25.227Z,3.1
2023-05-06T04:29:04.990Z,3.62
2023-05-06T04:30:44.757Z,3.36
2023-05-06T04:32:24.529Z,3.88
2023-05-06T04:34:04.289Z,2.32
2023-05-06T04:35:44.058Z,4.92
2023-05-06T04:37:23.830Z,4.41
2023-05-06T04:39:03.614Z,5.19
2023-05-06T04:40:43.388Z,4.92
2023-05-06T04:42:23.161Z,4.67
2023-05-06T04:44:02.929Z,5.46
2023-05-06T04:45:42.691Z,5.2
2023-05-06T04:47:22.460Z,5.99
2023-05-06T04:49:02.226Z,6.78
2023-05-06T04:50:42.006Z,7.05
2023-05-06T04:52:21.764Z,7.84
2023-05-06T04:54:01.539Z,8.63
2023-05-06T04:55:41.321Z,7.59
2023-05-06T04:57:21.082Z,6.81
2023-05-06T04:59:00.860Z,6.55
2023-05-06T05:00:40.651Z,7.61
2023-05-06T05:02:20.408Z,9.2
2023-05-06T05:04:00.170Z,10
2023-05-06T05:05:39.951Z,11.08
2023-05-06T05:07:19.708Z,12.15
2023-05-06T05:08:59.480Z,12.18
2023-05-06T05:10:39.245Z,11.39
2023-05-06T05:12:19.006Z,11.15
2023-05-06T05:13:58.780Z,12.49
2023-05-06T05:15:38.562Z,12.24
2023-05-06T05:17:18.341Z,12.8
2023-05-06T05:18:58.091Z,21.79
2023-05-06T05:20:37.873Z,12.06
2023-05-06T05:22:17.640Z,10.72
2023-05-06T05:23:57.406Z,9.91
2023-05-06T05:25:37.211Z,9.91
2023-05-06T05:27:16.944Z,10.47
2023-05-06T05:28:56.734Z,10.47
2023-05-06T05:30:36.507Z,8.85
2023-05-06T05:32:16.257Z,7.78
2023-05-06T05:33:56.055Z,7.52
2023-05-06T05:35:35.828Z,6.44
2023-05-06T05:37:15.568Z,7.24
2023-05-06T05:38:55.337Z,7.25
2023-05-06T05:40:35.099Z,7.52
2023-05-06T05:42:14.883Z,8.6
2023-05-06T05:43:54.658Z,8.34
2023-05-06T05:45:34.421Z,9.14
2023-05-06T05:47:14.197Z,9.16
2023-05-06T05:48:53.958Z,9.16
2023-05-06T05:50:33.731Z,8.63
2023-05-06T05:52:13.498Z,9.93
2023-05-06T05:53:53.268Z,8.91
2023-05-06T05:55:33.036Z,8.64
2023-05-06T05:57:12.814Z,7.56
2023-05-06T05:58:52.583Z,8.37
2023-05-06T06:00:32.337Z,9.47
2023-05-06T06:02:12.122Z,11.37
2023-05-06T06:03:51.896Z,11.39
2023-05-06T06:05:31.666Z,10.86
2023-05-06T06:07:11.432Z,11.41
2023-05-06T06:08:51.210Z,12.24
2023-05-06T06:10:30.968Z,13.35
2023-05-06T06:12:10.736Z,13.08
2023-05-06T06:13:50.506Z,11.99
2023-05-06T06:15:30.285Z,11.45
2023-05-06T06:17:10.069Z,10.9
2023-05-06T06:18:49.812Z,24.2
2023-05-06T06:20:29.592Z,15.65
2023-05-06T06:22:09.367Z,11.22
2023-05-06T06:23:49.124Z,11.77
2023-05-06T06:25:28.908Z,11.78
2023-05-06T06:27:08.671Z,11.23
2023-05-06T06:28:48.455Z,11.78
2023-05-06T06:30:28.216Z,10.96
2023-05-06T06:32:07.982Z,11.24
2023-05-06T06:33:47.755Z,11.79
2023-05-06T06:35:27.533Z,10.97
2023-05-06T06:37:07.302Z,9.31
2023-05-06T06:38:47.069Z,9.85
2023-05-06T06:40:26.844Z,9.59
2023-05-06T06:42:06.604Z,8.76
2023-05-06T06:43:46.383Z,8.18
2023-05-06T06:45:26.151Z,8.75
2023-05-06T06:47:05.922Z,8.47
2023-05-06T06:48:45.684Z,8.47
2023-05-06T06:50:25.476Z,7.64
2023-05-06T06:52:05.219Z,7.1
2023-05-06T06:53:45.012Z,7.91
2023-05-06T06:55:24.771Z,6.82
2023-05-06T06:57:04.556Z,7.64
2023-05-06T06:58:44.317Z,8.46
2023-05-06T07:00:24.120Z,8.18
2023-05-06T07:02:03.858Z,8.72
2023-05-06T07:03:43.621Z,7.36
2023-05-06T07:05:23.398Z,8.18
2023-05-06T07:07:03.162Z,8.72
2023-05-06T07:08:42.940Z,10.1
2023-05-06T07:10:22.698Z,10.88
2023-05-06T07:12:02.468Z,12.34
2023-05-06T07:13:42.256Z,13.74
2023-05-06T07:15:22.027Z,14.86
2023-05-06T07:17:01.793Z,15.73
2023-05-06T07:18:41.555Z,17.16
2023-05-06T07:20:21.332Z,32.36
2023-05-06T07:22:01.097Z,15.87
2023-05-06T07:23:40.864Z,17.54
2023-05-06T07:25:20.641Z,16.17
2023-05-06T07:27:00.421Z,16.73
2023-05-06T07:28:40.194Z,16.45
2023-05-06T07:30:19.955Z,16.75
2023-05-06T07:31:59.718Z,17.32
2023-05-06T07:33:39.484Z,17.34
2023-05-06T07:35:19.256Z,17.34
2023-05-06T07:36:59.027Z,17.08
2023-05-06T07:38:38.815Z,17.36
2023-05-06T07:40:18.581Z,16.24
2023-05-06T07:41:58.337Z,17.37
2023-05-06T07:43:38.098Z,17.95
2023-05-06T07:45:17.889Z,16.83
2023-05-06T07:46:57.650Z,21.13
2023-05-06T07:48:37.430Z,20.89
2023-05-06T07:50:17.188Z,20.04
2023-05-06T07:51:56.971Z,21.23
2023-05-06T07:53:36.725Z,19.54
2023-05-06T07:55:16.515Z,19.79
2023-05-06T07:56:56.268Z,18.65
2023-05-06T07:58:36.026Z,20.39
2023-05-06T08:00:15.800Z,20.99
2023-05-06T08:01:55.591Z,19.74
2023-05-06T08:03:35.344Z,17.23
2023-05-06T08:05:15.117Z,18.34
2023-05-06T08:06:54.902Z,19.81
2023-05-06T08:08:34.658Z,20.68
2023-05-06T08:10:14.446Z,19.54
2023-05-06T08:11:54.195Z,20.41
2023-05-06T08:13:33.980Z,16.95
2023-05-06T08:15:13.741Z,15.19
2023-05-06T08:16:53.520Z,13.45
2023-05-06T08:18:35.209Z,15.12
2023-05-06T08:20:13.041Z,17.65
2023-05-06T08:21:52.823Z,14.59
2023-05-06T08:23:32.602Z,10.59
2023-05-06T08:25:12.376Z,10.3
2023-05-06T08:26:52.136Z,10.56
2023-05-06T08:28:31.900Z,11.4
2023-05-06T08:30:11.672Z,14.22
2023-05-06T08:31:51.446Z,14.22
2023-05-06T08:33:31.209Z,17.04
2023-05-06T08:35:10.992Z,17.67
2023-05-06T08:36:50.749Z,17.12
2023-05-06T08:38:30.527Z,17.45
2023-05-06T08:40:10.303Z,19.83
2023-05-06T08:41:50.070Z,21.31
2023-05-06T08:43:29.845Z,21.96
2023-05-06T08:45:09.604Z,21.72
2023-05-06T08:46:49.372Z,19.96
2023-05-06T08:48:29.145Z,19.91
2023-05-06T08:50:08.924Z,17.87
2023-05-06T08:51:48.685Z,19.03
2023-05-06T08:53:28.456Z,18.75
2023-05-06T08:55:08.243Z,18.75
2023-05-06T08:56:48.009Z,19.07
2023-05-06T08:58:27.772Z,19.65
2023-05-06T09:00:07.550Z,18.75
2023-05-06T09:01:47.329Z,19.09
2023-05-06T09:03:27.088Z,20.84
2023-05-06T09:05:06.861Z,20.25
2023-05-06T09:06:46.626Z,19.37
2023-05-06T09:08:26.390Z,16.48
2023-05-06T09:10:06.166Z,17.85
2023-05-06T09:11:45.939Z,19.04
2023-05-06T09:13:25.710Z,18.17
2023-05-06T09:15:05.472Z,18.74
2023-05-06T09:16:45.242Z,19.03
2023-05-06T09:18:25.041Z,22.91
2023-05-06T09:20:04.793Z,26.78
2023-05-06T09:21:44.555Z,26.52
2023-05-06T09:23:24.318Z,28.81
2023-05-06T09:25:04.106Z,28.81
2023-05-06T09:26:43.876Z,28.5
2023-05-06T09:28:23.643Z,27.92
2023-05-06T09:30:03.404Z,27.03
2023-05-06T09:31:43.175Z,27.34
2023-05-06T09:33:22.947Z,27.03
2023-05-06T09:35:02.717Z,26.73
2023-05-06T09:36:42.485Z,28.5
2023-05-06T09:38:22.258Z,27.33
2023-05-06T09:40:02.062Z,28.5
2023-05-06T09:41:41.797Z,28.79
2023-05-06T09:43:21.574Z,26.72
2023-05-06T09:45:01.344Z,28.18
2023-05-06T09:46:41.101Z,27.62
2023-05-06T09:48:20.882Z,29.1
2023-05-06T09:50:00.656Z,29.38
2023-05-06T09:51:40.432Z,29.38
2023-05-06T09:53:20.183Z,29.39
2023-05-06T09:54:59.975Z,29.96
2023-05-06T09:56:39.740Z,28.2
2023-05-06T09:58:19.501Z,30.26
2023-05-06T09:59:59.272Z,27.9
2023-05-06T10:01:39.059Z,27.91
2023-05-06T10:03:18.810Z,29.07
2023-05-06T10:04:58.593Z,29.66
2023-05-06T10:06:38.350Z,28.18
2023-05-06T10:08:18.113Z,28.77
2023-05-06T10:09:57.891Z,28.78
2023-05-06T10:11:37.675Z,27.81
2023-05-06T10:13:17.433Z,30.26
2023-05-06T10:14:57.222Z,29.95
2023-05-06T10:16:36.978Z,28.78
2023-05-06T10:18:16.744Z,29.37
2023-05-06T10:19:56.519Z,29.37
2023-05-06T10:21:36.278Z,30.25
2023-05-06T10:23:16.050Z,29.37
2023-05-06T10:24:55.826Z,29.65
2023-05-06T10:26:35.601Z,30.53
2023-05-06T10:28:15.377Z,30.24
2023-05-06T10:29:55.130Z,29.94
2023-05-06T10:31:34.911Z,29.65
2023-05-06T10:33:14.668Z,31.41
2023-05-06T10:34:54.437Z,30.24
2023-05-06T10:36:34.221Z,29.92
2023-05-06T10:38:13.989Z,33.09
2023-05-06T10:39:53.762Z,30.54
2023-05-06T10:41:33.527Z,30.54
2023-05-06T10:43:13.304Z,29.94
2023-05-06T10:44:53.065Z,30.24
2023-05-06T10:46:32.854Z,30.82
2023-05-06T10:48:12.615Z,29.66
2023-05-06T10:49:52.374Z,31.41
2023-05-06T10:51:32.146Z,30.82
2023-05-06T10:53:11.922Z,30.83
2023-05-06T10:54:51.701Z,31.7
2023-05-06T10:56:31.457Z,30.83
2023-05-06T10:58:11.232Z,30.82
2023-05-06T10:59:50.994Z,30.53
2023-05-06T11:01:30.768Z,31.11
2023-05-06T11:03:10.557Z,30.51
2023-05-06T11:04:50.311Z,30.83
2023-05-06T11:06:30.083Z,30.53
2023-05-06T11:08:09.880Z,31.13
2023-05-06T11:09:49.624Z,31.42
2023-05-06T11:11:29.389Z,30.83
2023-05-06T11:13:09.159Z,31.12
2023-05-06T11:14:48.941Z,31.41
2023-05-06T11:16:28.707Z,31.13
2023-05-06T11:18:08.477Z,30.83
2023-05-06T11:19:48.252Z,31.12
2023-05-06T11:21:28.015Z,31.41
2023-05-06T11:23:07.782Z,31.71
2023-05-06T11:24:47.557Z,30.54
2023-05-06T11:26:27.336Z,32
2023-05-06T11:28:07.112Z,31.12
2023-05-06T11:29:46.863Z,29.83
2023-05-06T11:31:26.644Z,31.71
2023-05-06T11:33:06.400Z,31.42
2023-05-06T11:34:46.173Z,32
2023-05-06T11:36:25.945Z,32.3
2023-05-06T11:38:05.734Z,31.7
2023-05-06T11:39:45.489Z,32.3
2023-05-06T11:41:25.269Z,31.42
2023-05-06T11:43:05.032Z,31.69
2023-05-06T11:44:44.799Z,31.7
2023-05-06T11:46:24.579Z,32
2023-05-06T11:48:04.366Z,31.7
2023-05-06T11:49:44.104Z,32
2023-05-06T11:51:23.888Z,31.7
2023-05-06T11:53:03.661Z,32.29
2023-05-06T11:54:43.447Z,31.11
2023-05-06T11:56:23.196Z,36.06
2023-05-06T11:58:02.965Z,30.83
2023-05-06T11:59:42.743Z,31.42
2023-05-06T12:01:22.504Z,31.71
2023-05-06T12:03:02.289Z,32
2023-05-06T12:04:42.051Z,32.02
2023-05-06T12:06:21.808Z,32.58
2023-05-06T12:08:01.579Z,32.29
2023-05-06T12:09:41.359Z,32
2023-05-06T12:11:21.147Z,32.59
2023-05-06T12:13:00.900Z,32.88
2023-05-06T12:14:40.678Z,32.29
2023-05-06T12:16:20.426Z,32.29
2023-05-06T12:18:00.200Z,32.3
2023-05-06T12:19:39.969Z,32.28
2023-05-06T12:21:19.746Z,0
2023-05-06T12:22:59.515Z,0
2023-05-06T12:24:39.281Z,0
2023-05-06T12:26:19.051Z,0
2023-05-06T12:27:58.819Z,0
2023-05-06T12:29:38.596Z,0
2023-05-06T12:31:18.365Z,0
2023-05-06T12:32:58.130Z,6.06
2023-05-06T12:34:37.902Z,5.78
2023-05-06T12:36:17.680Z,6.06
2023-05-06T12:37:57.452Z,6.33
2023-05-06T12:39:37.218Z,6.89
2023-05-06T12:41:17.015Z,8.27
2023-05-06T12:42:56.757Z,7.71
2023-05-06T12:44:36.562Z,7.99
2023-05-06T12:46:16.294Z,8.26
2023-05-06T12:47:56.080Z,7.94
2023-05-06T12:49:35.856Z,8.26
2023-05-06T12:51:15.620Z,7.99
2023-05-06T12:52:55.380Z,8.81
2023-05-06T12:54:35.149Z,8.82
2023-05-06T12:56:14.926Z,9.09
2023-05-06T12:57:54.689Z,8.54
2023-05-06T12:59:34.477Z,8.54
2023-05-06T13:01:14.231Z,8.81
2023-05-06T13:02:53.994Z,9.09
2023-05-06T13:04:33.788Z,9.09
2023-05-06T13:06:13.538Z,8.26
2023-05-06T13:07:53.325Z,8.81
2023-05-06T13:09:33.098Z,8.26
2023-05-06T13:11:12.858Z,7.99
2023-05-06T13:12:52.630Z,8.81
2023-05-06T13:14:32.400Z,8.26
2023-05-06T13:16:12.154Z,9.64
2023-05-06T13:17:51.947Z,8.54
2023-05-06T13:19:31.707Z,8.27
2023-05-06T13:21:11.477Z,8.26
2023-05-06T13:22:51.257Z,8.26
2023-05-06T13:24:31.006Z,8.81
2023-05-06T13:26:10.795Z,8.54
2023-05-06T13:27:50.567Z,8.54
2023-05-06T13:29:30.380Z,8.81
2023-05-06T13:31:10.105Z,9.64
2023-05-06T13:32:49.885Z,9.37
2023-05-06T13:34:29.645Z,9.92
2023-05-06T13:36:09.399Z,9.09
2023-05-06T13:37:49.181Z,9.09
2023-05-06T13:39:28.940Z,8.81
2023-05-06T13:41:08.713Z,8.54
2023-05-06T13:42:48.493Z,9.37
2023-05-06T13:44:28.255Z,8.82
2023-05-06T13:46:08.047Z,9.09
2023-05-06T13:47:47.806Z,8.82
2023-05-06T13:49:27.582Z,8.82
2023-05-06T13:51:07.366Z,9.37
2023-05-06T13:52:47.120Z,8.54
2023-05-06T13:54:26.895Z,8.81
2023-05-06T13:56:06.649Z,9.09
2023-05-06T13:57:46.434Z,9.09
2023-05-06T13:59:26.204Z,9.09
2023-05-06T14:01:05.963Z,9.37
2023-05-06T14:02:45.748Z,8.54
2023-05-06T14:04:25.490Z,8.54
2023-05-06T14:06:05.280Z,8.5
2023-05-06T14:07:45.057Z,8.27
2023-05-06T14:09:24.821Z,8.26
2023-05-06T14:11:04.578Z,8.82
2023-05-06T14:12:44.357Z,9.09
2023-05-06T14:14:24.115Z,8.26
2023-05-06T14:16:03.888Z,7.99
2023-05-06T14:17:43.657Z,9.09
2023-05-06T14:19:23.440Z,9.09
2023-05-06T14:21:03.209Z,9.09
2023-05-06T14:22:42.991Z,7.99
2023-05-06T14:24:22.736Z,9.09
2023-05-06T14:26:02.519Z,9.35
2023-05-06T14:27:42.292Z,8.26
2023-05-06T14:29:22.055Z,7.99
2023-05-06T14:31:01.826Z,8.81
2023-05-06T14:32:41.606Z,9.09
2023-05-06T14:34:21.375Z,9.35
2023-05-06T14:36:01.129Z,9.09
2023-05-06T14:37:40.917Z,8.26
2023-05-06T14:39:20.733Z,8.54
2023-05-06T14:41:00.452Z,9.09
2023-05-06T14:42:40.214Z,9.37
2023-05-06T14:44:19.992Z,8.54
2023-05-06T14:45:59.758Z,7.71
2023-05-06T14:47:39.539Z,8.54
2023-05-06T14:49:19.303Z,8.81
2023-05-06T14:50:59.080Z,8.82
2023-05-06T14:52:38.843Z,8.82
2023-05-06T14:54:18.622Z,8.82
2023-05-06T14:55:58.391Z,7.99
2023-05-06T14:57:38.234Z,8.25
2023-05-06T14:59:17.930Z,8.54
2023-05-06T15:00:57.720Z,8.82
2023-05-06T15:02:37.459Z,8.54
2023-05-06T15:04:17.241Z,8.26
2023-05-06T15:05:57.042Z,8.54
2023-05-06T15:07:36.783Z,7.71
2023-05-06T15:09:16.557Z,8.82
2023-05-06T15:10:56.324Z,8.82
2023-05-06T15:12:36.078Z,8.54
2023-05-06T15:14:15.860Z,8.27
2023-05-06T15:15:55.642Z,8.82
2023-05-06T15:17:35.408Z,7.99
2023-05-06T15:19:15.178Z,8.81
2023-05-06T15:20:54.950Z,9.1
2023-05-06T15:22:34.725Z,9.37
2023-05-06T15:24:14.490Z,13.99
2023-05-06T15:25:54.257Z,9.09
2023-05-06T15:27:34.025Z,8.54
2023-05-06T15:29:13.796Z,8.54
2023-05-06T15:30:53.556Z,8.82
2023-05-06T15:32:33.329Z,8.27
2023-05-06T15:34:13.107Z,8.82
2023-05-06T15:35:52.874Z,7.72
2023-05-06T15:37:32.632Z,8.27
2023-05-06T15:39:12.431Z,8.54
2023-05-06T15:40:52.189Z,8.54
2023-05-06T15:42:31.952Z,9.09
2023-05-06T15:44:11.729Z,9.1
2023-05-06T15:45:51.497Z,7.71
2023-05-06T15:47:31.279Z,8.27
2023-05-06T15:49:11.024Z,8.26
2023-05-06T15:50:50.817Z,9.09
2023-05-06T15:52:30.580Z,8.27
2023-05-06T15:54:10.335Z,8.82
2023-05-06T15:55:50.135Z,7.71
2023-05-06T15:57:29.875Z,8.54
2023-05-06T15:59:09.662Z,8.82
2023-05-06T16:00:49.417Z,8.54
2023-05-06T16:02:29.182Z,8.26
2023-05-06T16:04:08.962Z,9.1
2023-05-06T16:05:48.760Z,9.1
2023-05-06T16:07:28.508Z,9.09
2023-05-06T16:09:08.265Z,9.09
2023-05-06T16:10:48.049Z,8.82
2023-05-06T16:12:27.807Z,8.27
2023-05-06T16:14:07.579Z,7.99
2023-05-06T16:15:47.355Z,7.68
2023-05-06T16:17:27.128Z,9.1
2023-05-06T16:19:06.895Z,8.54
2023-05-06T16:20:46.660Z,8.27
2023-05-06T16:22:26.431Z,8.82
2023-05-06T16:24:06.198Z,8.82
2023-05-06T16:25:45.999Z,7.99
2023-05-06T16:27:25.744Z,7.44
2023-05-06T16:29:05.526Z,9.1
2023-05-06T16:30:45.287Z,9.1
2023-05-06T16:32:25.059Z,7.71
2023-05-06T16:34:04.828Z,7.99
2023-05-06T16:35:44.610Z,7.99
2023-05-06T16:37:24.348Z,9.09
2023-05-06T16:39:04.135Z,8.27
2023-05-06T16:40:43.894Z,7.44
2023-05-06T16:42:23.669Z,8.54
2023-05-06T16:44:03.474Z,7.16
2023-05-06T16:45:43.207Z,8.27
2023-05-06T16:47:23.027Z,7.99
2023-05-06T16:49:02.755Z,8.54
2023-05-06T16:50:42.521Z,9.1
2023-05-06T16:52:22.332Z,9.09
2023-05-06T16:54:02.066Z,8.54
2023-05-06T16:55:41.830Z,8.81
2023-05-06T16:57:21.606Z,7.44
2023-05-06T16:59:01.372Z,8.81
2023-05-06T17:00:41.158Z,7.71
2023-05-06T17:02:20.925Z,5.22
2023-05-06T17:04:00.697Z,6.32
2023-05-06T17:05:40.464Z,5.21
2023-05-06T17:07:20.243Z,3.27
2023-05-06T17:08:59.983Z,6.57
2023-05-06T17:10:39.773Z,4.92
2023-05-06T17:12:19.547Z,5.19
2023-05-06T17:13:59.310Z,4.1
2023-05-06T17:15:39.076Z,2.18
2023-05-06T17:17:18.846Z,1.63
2023-05-06T17:18:58.617Z,1.36
2023-05-06T17:20:38.391Z,2.44
2023-05-06T17:22:18.162Z,1.9
2023-05-06T17:23:57.966Z,1.89
2023-05-06T17:25:37.826Z,1.35
2023-05-06T17:27:17.587Z,1.89
2023-05-06T17:28:57.422Z,1.62
2023-05-06T17:30:37.110Z,2.16
2023-05-06T17:32:16.846Z,1.35
2023-05-06T17:33:56.712Z,0.8
2023-05-06T17:35:36.399Z,2.15
2023-05-06T17:37:16.287Z,1.07
2023-05-06T17:38:56.036Z,0
2023-05-06T17:40:35.772Z,0
2023-05-06T17:42:15.537Z,0
2023-05-06T17:43:55.216Z,0
2023-05-06T17:45:35.085Z,0
2023-05-06T17:47:14.783Z,0
2023-05-06T17:48:54.581Z,0
2023-05-06T17:50:34.385Z,0
2023-05-06T17:52:14.143Z,0
2023-05-06T17:53:53.937Z,0.26
2023-05-06T17:55:33.661Z,0.52
2023-05-06T17:57:13.464Z,0.26
2023-05-06T17:58:53.232Z,0
2023-05-06T18:00:33.020Z,0.8
2023-05-06T18:02:12.844Z,0
2023-05-06T18:03:52.506Z,0.26
2023-05-06T18:05:32.233Z,0
2023-05-06T18:07:12.107Z,0.26
2023-05-06T18:08:51.809Z,0
2023-05-06T18:10:31.647Z,0
2023-05-06T18:12:11.367Z,0
2023-05-06T18:13:51.136Z,0
2023-05-06T18:15:30.973Z,0
2023-05-06T18:17:10.686Z,0
2023-05-06T18:18:50.278Z,0
2023-05-06T18:20:30.273Z,0
2023-05-06T18:22:09.968Z,0
2023-05-06T18:23:49.749Z,3.95
2023-05-06T18:25:29.526Z,0
2023-05-06T18:27:09.319Z,0
2023-05-06T18:28:49.031Z,0
2023-05-06T18:30:28.841Z,0
2023-05-06T18:32:08.517Z,0
2023-05-06T18:33:48.441Z,0
2023-05-06T18:35:28.185Z,0
2023-05-06T18:37:07.892Z,0
2023-05-06T18:38:47.699Z,0
2023-05-06T18:40:27.258Z,0
2023-05-06T18:42:07.197Z,0
2023-05-06T18:43:47.000Z,0
2023-05-06T18:45:26.565Z,0
2023-05-06T18:47:06.522Z,0
2023-05-06T18:48:46.200Z,0
2023-05-06T18:50:26.035Z,0
2023-05-06T18:52:05.854Z,0
2023-05-06T18:53:45.543Z,0
2023-05-06T18:55:25.324Z,0
2023-05-06T18:57:05.113Z,0
2023-05-06T18:58:44.863Z,0
2023-05-06T19:00:24.660Z,0
2023-05-06T19:02:04.406Z,0
2023-05-06T19:03:44.186Z,0
2023-05-06T19:05:23.912Z,0
2023-05-06T19:07:03.735Z,0
2023-05-06T19:08:43.438Z,0
2023-05-06T19:10:23.132Z,0
2023-05-06T19:12:03.089Z,0
2023-05-06T19:13:42.821Z,0
2023-05-06T19:15:22.480Z,0
2023-05-06T19:17:02.356Z,0
2023-05-06T19:18:42.163Z,0
2023-05-06T19:20:21.832Z,0
2023-05-06T19:22:01.624Z,0
2023-05-06T19:23:41.210Z,0
2023-05-06T19:25:21.167Z,0
2023-05-06T19:27:00.944Z,0
2023-05-06T19:28:40.704Z,0
2023-05-06T19:30:20.481Z,0
2023-05-06T19:32:00.275Z,0
2023-05-06T19:33:40.083Z,0
2023-05-06T19:35:19.772Z,0
2023-05-06T19:36:59.534Z,0
2023-05-06T19:38:39.337Z,0
2023-05-06T19:40:19.069Z,0
2023-05-06T19:41:58.871Z,0
2023-05-06T19:43:38.463Z,0
2023-05-06T19:45:18.323Z,0
2023-05-06T19:46:57.964Z,0
2023-05-06T19:48:37.902Z,0
2023-05-06T19:50:17.637Z,0
2023-05-06T19:51:57.427Z,0
2023-05-06T19:53:37.246Z,0
2023-05-06T19:55:16.938Z,0
2023-05-06T19:56:56.730Z,0
2023-05-06T19:58:36.501Z,0
2023-05-06T20:00:16.269Z,0
2023-05-06T20:01:55.870Z,0
2023-05-06T20:03:35.858Z,0
2023-05-06T20:05:15.616Z,0
2023-05-06T20:06:55.164Z,0
2023-05-06T20:08:35.184Z,0
2023-05-06T20:10:14.887Z,0
2023-05-06T20:11:54.650Z,0
2023-05-06T20:13:34.422Z,0
2023-05-06T20:15:14.174Z,0
2023-05-06T20:16:53.979Z,0
2023-05-06T20:18:33.589Z,0
2023-05-06T20:20:13.433Z,0
2023-05-06T20:21:53.206Z,0
2023-05-06T20:23:33.059Z,0
2023-05-06T20:25:12.651Z,0
2023-05-06T20:26:52.389Z,0
2023-05-06T20:28:32.353Z,0
2023-05-06T20:30:12.017Z,0
2023-05-06T20:31:51.854Z,0
2023-05-06T20:33:31.543Z,0
2023-05-06T20:35:11.422Z,0
2023-05-06T20:36:51.177Z,0
2023-05-06T20:38:30.989Z,0
2023-05-06T20:40:10.661Z,0
2023-05-06T20:41:50.479Z,0
2023-05-06T20:43:30.272Z,0
2023-05-06T20:45:09.903Z,0
2023-05-06T20:46:49.755Z,0
2023-05-06T20:48:29.463Z,0
2023-05-06T20:50:09.363Z,0
2023-05-06T20:51:49.067Z,0
2023-05-06T20:53:28.808Z,0
2023-05-06T20:55:08.633Z,0
2023-05-06T20:56:48.173Z,0
2023-05-06T20:58:28.169Z,0
2023-05-06T21:00:07.881Z,0
2023-05-06T21:01:47.530Z,0
2023-05-06T21:03:27.443Z,0
2023-05-06T21:05:07.030Z,0
2023-05-06T21:06:46.946Z,0
2023-05-06T21:08:26.826Z,0
2023-05-06T21:10:06.509Z,0
2023-05-06T21:11:46.315Z,0
2023-05-06T21:13:26.056Z,0
2023-05-06T21:15:05.623Z,0
2023-05-06T21:16:45.560Z,0
2023-05-06T21:18:25.283Z,0
2023-05-06T21:20:05.098Z,0
2023-05-06T21:21:44.869Z,0
2023-05-06T21:23:24.626Z,0
2023-05-06T21:25:04.236Z,0
2023-05-06T21:26:44.011Z,0
2023-05-06T21:28:23.879Z,0
2023-05-06T21:30:03.712Z,0
2023-05-06T21:31:43.309Z,0
2023-05-06T21:33:23.248Z,0
2023-05-06T21:35:02.936Z,0
2023-05-06T21:36:42.720Z,0
2023-05-06T21:38:22.367Z,0
2023-05-06T21:40:02.287Z,0
2023-05-06T21:41:41.904Z,0
2023-05-06T21:43:21.894Z,0
2023-05-06T21:45:01.434Z,0
2023-05-06T21:46:41.425Z,0
2023-05-06T21:48:21.139Z,0
2023-05-06T21:50:00.964Z,0
2023-05-06T21:51:40.687Z,0
2023-05-06T21:53:20.310Z,0
2023-05-06T21:55:00.069Z,0
2023-05-06T21:56:39.989Z,0
2023-05-06T21:58:19.743Z,0
2023-05-06T21:59:59.610Z,0
2023-05-06T22:01:39.280Z,0
2023-05-06T22:03:19.120Z,0
2023-05-06T22:04:58.654Z,0
2023-05-06T22:06:38.600Z,0
2023-05-06T22:08:18.341Z,0
2023-05-06T22:09:58.047Z,0
2023-05-06T22:11:37.886Z,0
2023-05-06T22:13:17.660Z,0
2023-05-06T22:14:57.259Z,0
2023-05-06T22:16:37.151Z,0
2023-05-06T22:18:16.968Z,0
2023-05-06T22:19:56.725Z,0
2023-05-06T22:21:36.595Z,0
2023-05-06T22:23:16.256Z,0
2023-05-06T22:24:55.930Z,0
2023-05-06T22:26:35.830Z,0
2023-05-06T22:28:15.517Z,0
2023-05-06T22:29:55.322Z,0
2023-05-06T22:31:35.092Z,0
2023-05-06T22:33:14.896Z,0
2023-05-06T22:34:54.555Z,0
2023-05-06T22:36:34.411Z,0
2023-05-06T22:38:14.191Z,0
2023-05-06T22:39:53.948Z,0
2023-05-06T22:41:33.710Z,0
2023-05-06T22:43:13.498Z,0
2023-05-06T22:44:53.272Z,0
2023-05-06T22:46:33.002Z,0
2023-05-06T22:48:12.774Z,0
2023-05-06T22:49:52.544Z,0
2023-05-06T22:51:32.300Z,0
2023-05-06T22:53:12.078Z,0
2023-05-06T22:54:51.843Z,0